Time;durP1;ratioP1;P1;durP2;ratioP2;P2;SDS_P1;SDS_P2;PMS_P1;PMS_P2;Temp;Humidity;BMP_temperature;BMP_pressure;BME280_temperature;BME280_humidity;BME280_pressure;Samples;Min_cycle;Max_cycle;Signal;HPM_P1;HPM_P2
2024/01/13 00:00:04;;;;;;;7.05;5.18;;;8.70;64.10;10.60;102674.00;;;;5036519;28;20202;-77
2024/01/13 00:02:31;;;;;;;5.57;4.60;;;8.70;64.20;10.70;102673.00;;;;5028495;28;20188;-77
2024/01/13 00:04:59;;;;;;;5.40;4.82;;;8.70;64.30;10.60;102673.00;;;;5038704;28;20207;-76
2024/01/13 00:07:26;;;;;;;8.82;5.20;;;8.70;64.30;10.70;102673.00;;;;5053705;28;20231;-76
2024/01/13 00:09:53;;;;;;;8.55;5.32;;;8.70;64.30;10.70;102676.00;;;;5043392;28;20744;-77
2024/01/13 00:12:20;;;;;;;7.38;5.85;;;8.70;64.30;10.70;102673.00;;;;5029778;28;20761;-77
2024/01/13 00:14:47;;;;;;;6.78;5.32;;;8.70;64.30;10.70;102665.00;;;;5035686;28;20208;-77
2024/01/13 00:17:14;;;;;;;6.40;4.30;;;8.70;64.30;10.70;102670.00;;;;5033540;28;20222;-77
2024/01/13 00:19:41;;;;;;;7.53;5.55;;;8.70;64.20;10.70;102660.00;;;;5031287;28;20202;-76
2024/01/13 00:22:09;;;;;;;6.85;4.50;;;8.70;64.20;10.60;102660.00;;;;5033208;28;20716;-77
2024/01/13 00:24:36;;;;;;;6.13;4.63;;;8.70;64.20;10.60;102657.00;;;;5039997;28;20200;-77
2024/01/13 00:27:04;;;;;;;6.28;4.45;;;8.70;64.10;10.60;102652.00;;;;5051648;28;20611;-77
2024/01/13 00:29:31;;;;;;;5.47;4.47;;;8.70;64.20;10.60;102648.00;;;;5053706;28;20294;-76
2024/01/13 00:31:58;;;;;;;5.20;4.18;;;8.70;64.20;10.60;102641.00;;;;5044515;28;20204;-77
2024/01/13 00:34:25;;;;;;;5.97;4.88;;;8.70;64.20;10.60;102631.00;;;;5036760;28;20578;-77
2024/01/13 00:36:52;;;;;;;5.70;4.65;;;8.60;64.20;10.60;102628.00;;;;5052044;28;20726;-77
2024/01/13 00:39:21;;;;;;;7.40;4.80;;;8.60;64.30;10.60;102628.00;;;;5050597;28;20561;-77
2024/01/13 00:41:48;;;;;;;5.88;4.28;;;8.60;64.30;10.60;102631.00;;;;5046895;28;20657;-77
2024/01/13 00:44:15;;;;;;;4.75;4.07;;;8.60;64.30;10.60;102621.00;;;;5051796;28;20206;-77
2024/01/13 00:46:42;;;;;;;6.28;4.43;;;8.60;64.30;10.60;102605.00;;;;5052635;28;20224;-77
2024/01/13 00:49:09;;;;;;;5.75;4.53;;;8.60;64.30;10.60;102605.00;;;;5041561;28;20678;-77
2024/01/13 00:51:37;;;;;;;5.15;3.65;;;8.60;64.30;10.60;102612.00;;;;5032323;28;20196;-77
2024/01/13 00:54:06;;;;;;;4.78;3.58;;;8.60;64.30;10.60;102603.00;;;;5045783;28;20227;-76
2024/01/13 00:56:34;;;;;;;5.05;3.90;;;8.60;64.40;10.50;102595.00;;;;5052598;28;20187;-77
2024/01/13 00:59:01;;;;;;;4.75;3.17;;;8.60;64.40;10.50;102594.00;;;;5051599;28;20208;-77
2024/01/13 01:01:29;;;;;;;4.85;3.28;;;8.60;64.50;10.50;102592.00;;;;5040506;28;20311;-77
2024/01/13 01:03:56;;;;;;;3.50;2.85;;;8.60;64.50;10.50;102593.00;;;;5034005;28;20204;-77
2024/01/13 01:06:23;;;;;;;4.13;2.88;;;8.60;64.50;10.50;102593.00;;;;5028641;28;20196;-77
2024/01/13 01:08:50;;;;;;;3.70;3.17;;;8.60;64.50;10.50;102584.00;;;;5025533;28;20220;-77
2024/01/13 01:11:17;;;;;;;3.33;2.75;;;8.60;64.50;10.50;102586.00;;;;5028436;28;20196;-77
2024/01/13 01:13:45;;;;;;;3.22;2.75;;;8.60;64.60;10.40;102587.00;;;;5029826;28;20198;-77
2024/01/13 01:16:13;;;;;;;3.05;2.45;;;8.50;64.60;10.40;102588.00;;;;5027726;28;20284;-77
2024/01/13 01:18:40;;;;;;;3.20;2.75;;;8.50;64.60;10.40;102593.00;;;;5046243;28;20241;-77
2024/01/13 01:21:07;;;;;;;3.75;2.67;;;8.60;64.70;10.40;102584.00;;;;5046328;28;20200;-77
2024/01/13 01:23:34;;;;;;;3.42;3.10;;;8.50;64.70;10.40;102589.00;;;;5030992;28;20204;-77
2024/01/13 01:26:01;;;;;;;3.40;3.10;;;8.50;64.70;10.40;102580.00;;;;5051163;28;20290;-77
2024/01/13 01:28:28;;;;;;;2.95;2.65;;;8.50;64.80;10.40;102588.00;;;;5043310;28;20709;-78
2024/01/13 01:30:56;;;;;;;4.00;3.13;;;8.50;64.80;10.40;102592.00;;;;5032326;28;20188;-77
2024/01/13 01:33:23;;;;;;;3.38;3.05;;;8.50;64.80;10.40;102583.00;;;;5047383;28;20227;-77
2024/01/13 01:35:50;;;;;;;3.22;2.92;;;8.50;64.80;10.50;102570.00;;;;5047976;28;20230;-77
2024/01/13 01:38:17;;;;;;;4.50;3.08;;;8.50;64.90;10.50;102569.00;;;;5050686;28;20227;-77
2024/01/13 01:40:46;;;;;;;3.60;3.25;;;8.60;65.00;10.50;102578.00;;;;5032185;28;20246;-77
2024/01/13 01:43:13;;;;;;;4.25;3.85;;;8.50;64.90;10.50;102576.00;;;;5039886;28;20204;-77
2024/01/13 01:45:40;;;;;;;3.28;2.67;;;8.60;65.00;10.50;102570.00;;;;5047795;28;20205;-77
2024/01/13 01:48:08;;;;;;;3.78;3.22;;;8.60;65.00;10.50;102576.00;;;;5050734;28;20233;-77
2024/01/13 01:50:37;;;;;;;4.50;3.17;;;8.60;64.80;10.50;102576.00;;;;5030684;28;20664;-77
2024/01/13 01:53:04;;;;;;;4.53;3.47;;;8.60;64.80;10.50;102571.00;;;;5043854;28;20310;-78
2024/01/13 01:55:32;;;;;;;3.95;3.42;;;8.60;64.90;10.50;102570.00;;;;5042450;28;20196;-78
2024/01/13 01:58:02;;;;;;;5.28;4.05;;;8.60;65.00;10.50;102575.00;;;;5031884;28;20192;-78
2024/01/13 02:00:29;;;;;;;4.78;3.40;;;8.60;65.00;10.50;102564.00;;;;5030780;28;20211;-78
2024/01/13 02:02:57;;;;;;;4.72;4.07;;;8.60;65.00;10.50;102564.00;;;;5040496;28;20688;-78
2024/01/13 02:05:26;;;;;;;4.55;3.75;;;8.60;64.90;10.50;102558.00;;;;5049708;28;20286;-77
2024/01/13 02:07:54;;;;;;;4.20;3.80;;;8.60;65.00;10.50;102553.00;;;;5051318;28;20727;-78
2024/01/13 02:10:22;;;;;;;4.38;3.95;;;8.60;65.00;10.50;102542.00;;;;5047984;28;20198;-78
2024/01/13 02:12:49;;;;;;;4.95;4.30;;;8.60;65.00;10.50;102534.00;;;;5045819;28;20197;-78
2024/01/13 02:15:16;;;;;;;5.13;4.30;;;8.60;65.00;10.50;102534.00;;;;5032926;28;20208;-78
2024/01/13 02:17:43;;;;;;;5.10;4.22;;;8.60;64.90;10.50;102537.00;;;;5032560;28;20192;-78
2024/01/13 02:20:12;;;;;;;6.13;4.72;;;8.60;64.90;10.50;102531.00;;;;5051508;28;20649;-78
2024/01/13 02:22:40;;;;;;;6.85;5.38;;;8.60;65.00;10.50;102531.00;;;;5049014;28;20223;-78
2024/01/13 02:25:09;;;;;;;5.93;4.40;;;8.60;65.00;10.50;102528.00;;;;5021194;28;20662;-78
2024/01/13 02:27:36;;;;;;;5.93;4.53;;;8.60;64.90;10.50;102517.00;;;;5030203;28;20223;-78
2024/01/13 02:30:04;;;;;;;6.10;4.68;;;8.60;64.90;10.50;102511.00;;;;5030324;28;20196;-77
2024/01/13 02:32:31;;;;;;;5.63;4.88;;;8.60;64.80;10.50;102502.00;;;;5034031;28;20676;-78
2024/01/13 02:34:58;;;;;;;7.18;5.50;;;8.60;64.90;10.50;102507.00;;;;5036883;28;20192;-77
2024/01/13 02:37:25;;;;;;;7.32;5.95;;;8.60;64.90;10.50;102505.00;;;;5048322;28;20214;-78
2024/01/13 02:39:54;;;;;;;6.07;5.00;;;8.50;64.90;10.40;102495.00;;;;5030960;28;20196;-78
2024/01/13 02:42:21;;;;;;;6.95;5.63;;;8.50;65.60;10.50;102498.00;;;;5037964;28;20222;-78
2024/01/13 02:44:47;;;;;;;7.40;5.45;;;8.50;64.90;10.40;102485.00;;;;5038057;28;20204;-78
2024/01/13 02:47:15;;;;;;;7.65;6.03;;;8.50;64.90;10.40;102480.00;;;;5033268;28;20573;-78
2024/01/13 02:49:42;;;;;;;8.18;6.18;;;8.50;64.90;10.40;102471.00;;;;5029206;28;20291;-78
2024/01/13 02:52:09;;;;;;;8.75;6.57;;;8.50;65.00;10.40;102476.00;;;;5046084;28;20572;-78
2024/01/13 02:54:36;;;;;;;9.00;7.03;;;8.50;65.00;10.40;102468.00;;;;5049822;28;20199;-78
2024/01/13 02:57:04;;;;;;;8.50;7.40;;;8.50;65.00;10.40;102455.00;;;;5039301;28;20205;-78
2024/01/13 02:59:31;;;;;;;8.82;6.65;;;8.50;65.00;10.40;102457.00;;;;5032452;28;20200;-78
2024/01/13 03:01:58;;;;;;;9.48;7.65;;;8.50;65.00;10.40;102447.00;;;;5033418;28;20208;-78
2024/01/13 03:04:25;;;;;;;9.65;7.65;;;8.50;65.00;10.40;102445.00;;;;5036847;28;20200;-79
2024/01/13 03:06:53;;;;;;;10.85;7.88;;;8.50;65.10;10.40;102446.00;;;;5050928;28;20210;-78
2024/01/13 03:09:20;;;;;;;10.98;7.45;;;8.50;65.10;10.40;102443.00;;;;5051066;28;20231;-78
2024/01/13 03:11:47;;;;;;;10.65;8.10;;;8.50;65.10;10.40;102442.00;;;;5048017;28;20653;-77
2024/01/13 03:14:15;;;;;;;12.20;8.57;;;8.50;65.00;10.40;102432.00;;;;5053538;28;20206;-78
2024/01/13 03:16:42;;;;;;;10.35;7.72;;;8.50;65.00;10.40;102432.00;;;;5051502;28;20201;-78
2024/01/13 03:19:09;;;;;;;12.90;9.20;;;8.50;65.10;10.40;102433.00;;;;5054195;28;20188;-78
2024/01/13 03:21:36;;;;;;;13.25;8.52;;;8.50;65.10;10.40;102427.00;;;;5044268;28;20685;-78
2024/01/13 03:24:03;;;;;;;12.32;9.30;;;8.50;65.10;10.30;102421.00;;;;5044863;28;20204;-78
2024/01/13 03:26:30;;;;;;;11.32;8.35;;;8.50;65.20;10.30;102421.00;;;;5052344;28;20200;-78
2024/01/13 03:28:57;;;;;;;11.63;8.65;;;8.50;65.10;10.30;102421.00;;;;5054580;28;20234;-78
2024/01/13 03:31:25;;;;;;;10.75;8.30;;;8.50;65.20;10.30;102418.00;;;;5051656;28;20211;-78
2024/01/13 03:33:53;;;;;;;9.27;7.78;;;8.40;65.20;10.30;102419.00;;;;5033785;28;20683;-78
2024/01/13 03:36:20;;;;;;;9.88;7.53;;;8.50;65.30;10.30;102417.00;;;;5036745;28;20232;-78
2024/01/13 03:38:47;;;;;;;9.80;7.57;;;8.50;65.30;10.30;102405.00;;;;5046966;28;20202;-78
2024/01/13 03:41:18;;;;;;;9.48;7.40;;;8.40;66.00;10.30;102406.00;;;;5053237;28;20206;-78
2024/01/13 03:43:45;;;;;;;9.48;7.32;;;8.40;65.20;10.30;102401.00;;;;5041790;28;20590;-78
2024/01/13 03:46:12;;;;;;;8.70;6.65;;;8.40;65.30;10.30;102394.00;;;;5050341;28;20215;-78
2024/01/13 03:48:41;;;;;;;8.50;6.93;;;8.40;65.30;10.30;102395.00;;;;5032437;28;20220;-78
2024/01/13 03:51:09;;;;;;;8.57;7.07;;;8.40;65.40;10.30;102393.00;;;;5032661;28;20196;-77
2024/01/13 03:53:36;;;;;;;8.43;6.93;;;8.40;65.50;10.30;102387.00;;;;5035351;28;20204;-77
2024/01/13 03:56:05;;;;;;;8.98;6.60;;;8.40;65.40;10.30;102393.00;;;;5033184;28;20200;-77
2024/01/13 03:58:32;;;;;;;7.70;6.10;;;8.40;65.50;10.30;102392.00;;;;5032395;28;20210;-77
2024/01/13 04:00:59;;;;;;;9.07;6.78;;;8.40;65.50;10.30;102392.00;;;;5040727;28;20286;-77
2024/01/13 04:03:26;;;;;;;8.30;6.57;;;8.40;65.50;10.30;102393.00;;;;5040671;28;20200;-77
2024/01/13 04:05:54;;;;;;;8.43;6.40;;;8.40;65.50;10.30;102394.00;;;;5050491;28;20203;-77
2024/01/13 04:08:23;;;;;;;7.25;5.97;;;8.40;65.50;10.30;102390.00;;;;5049723;28;20234;-77
2024/01/13 04:10:50;;;;;;;8.35;5.85;;;8.40;65.50;10.30;102378.00;;;;5049697;28;20206;-77
2024/01/13 04:13:17;;;;;;;7.57;5.65;;;8.40;65.50;10.30;102369.00;;;;5045552;28;20806;-77
2024/01/13 04:15:44;;;;;;;8.00;6.38;;;8.40;65.50;10.30;102375.00;;;;5031623;28;20205;-77
2024/01/13 04:18:11;;;;;;;8.88;6.53;;;8.40;65.50;10.30;102374.00;;;;5033541;28;20196;-77
2024/01/13 04:20:38;;;;;;;8.43;6.13;;;8.40;65.50;10.30;102359.00;;;;5031896;28;20203;-77
2024/01/13 04:23:06;;;;;;;10.18;5.82;;;8.40;65.50;10.30;102355.00;;;;5035122;28;20681;-77
2024/01/13 04:25:34;;;;;;;8.13;6.40;;;8.40;65.50;10.30;102345.00;;;;5052916;28;20196;-77
2024/01/13 04:28:01;;;;;;;6.68;5.03;;;8.40;65.50;10.30;102349.00;;;;5051377;28;20225;-77
2024/01/13 04:30:28;;;;;;;7.15;5.28;;;8.40;65.50;10.30;102350.00;;;;5034436;28;20207;-77
2024/01/13 04:32:57;;;;;;;7.45;5.50;;;8.40;65.50;10.40;102341.00;;;;5031755;28;20216;-77
2024/01/13 04:35:24;;;;;;;6.88;5.40;;;8.50;65.60;10.40;102353.00;;;;5027860;28;20236;-77
2024/01/13 04:37:51;;;;;;;7.22;5.63;;;8.40;65.60;10.40;102351.00;;;;5013085;28;20200;-77
2024/01/13 04:40:19;;;;;;;7.82;6.20;;;8.40;65.60;10.30;102353.00;;;;5024917;28;20400;-77
2024/01/13 04:42:46;;;;;;;7.70;6.05;;;8.50;65.60;10.40;102352.00;;;;5032887;28;20207;-77
2024/01/13 04:45:13;;;;;;;7.38;5.47;;;8.50;65.70;10.40;102350.00;;;;5037775;28;20203;-77
2024/01/13 04:47:41;;;;;;;6.80;5.72;;;8.50;65.70;10.40;102350.00;;;;5032481;28;20580;-77
2024/01/13 04:50:09;;;;;;;7.57;5.55;;;8.50;65.70;10.40;102345.00;;;;5041494;28;20199;-77
2024/01/13 04:52:37;;;;;;;5.78;4.32;;;8.50;66.40;10.40;102345.00;;;;5052920;28;20192;-77
2024/01/13 04:55:05;;;;;;;7.28;5.25;;;8.50;65.70;10.40;102337.00;;;;5052151;28;20199;-77
2024/01/13 04:57:33;;;;;;;6.80;5.38;;;8.50;65.70;10.50;102336.00;;;;5053045;28;20200;-77
2024/01/13 05:00:00;;;;;;;7.32;5.45;;;8.50;65.70;10.50;102342.00;;;;5050776;28;20199;-77
2024/01/13 05:02:27;;;;;;;7.68;5.75;;;8.50;65.90;10.50;102348.00;;;;5052418;28;20204;-77
2024/01/13 05:04:54;;;;;;;10.15;6.07;;;8.50;65.60;10.50;102351.00;;;;5035318;28;20200;-77
2024/01/13 05:07:21;;;;;;;7.22;5.38;;;8.60;65.70;10.50;102341.00;;;;5052246;28;20191;-77
2024/01/13 05:09:49;;;;;;;7.53;5.72;;;8.60;65.70;10.50;102334.00;;;;5051375;28;20230;-77
2024/01/13 05:12:17;;;;;;;7.10;5.63;;;8.60;65.60;10.50;102337.00;;;;5052474;28;20584;-77
2024/01/13 05:14:47;;;;;;;7.47;5.68;;;8.60;65.60;10.50;102341.00;;;;5040658;28;20212;-77
2024/01/13 05:17:14;;;;;;;8.23;5.95;;;8.60;65.60;10.50;102347.00;;;;5039958;28;20286;-77
2024/01/13 05:19:41;;;;;;;6.97;5.53;;;8.60;65.60;10.50;102344.00;;;;5033936;28;20196;-77
2024/01/13 05:22:08;;;;;;;8.45;5.75;;;8.60;65.60;10.50;102348.00;;;;5043450;28;20215;-77
2024/01/13 05:24:35;;;;;;;7.45;5.85;;;8.60;65.60;10.50;102350.00;;;;5050905;28;20683;-77
2024/01/13 05:27:02;;;;;;;6.50;5.38;;;8.60;65.60;10.50;102352.00;;;;5048052;28;20262;-77
2024/01/13 05:29:29;;;;;;;8.18;6.05;;;8.60;65.60;10.50;102351.00;;;;5050140;28;20233;-77
2024/01/13 05:31:58;;;;;;;6.90;5.35;;;8.60;65.70;10.50;102351.00;;;;5038626;28;20200;-77
2024/01/13 05:34:25;;;;;;;5.78;4.65;;;8.60;66.40;10.50;102347.00;;;;5037949;28;20192;-78
2024/01/13 05:36:52;;;;;;;7.60;5.68;;;8.60;65.80;10.50;102342.00;;;;5029003;28;20230;-77
2024/01/13 05:39:19;;;;;;;6.53;5.47;;;8.60;65.70;10.50;102334.00;;;;5035922;28;20658;-78
2024/01/13 05:41:46;;;;;;;7.43;5.40;;;8.60;65.70;10.50;102334.00;;;;5044702;28;20449;-77
2024/01/13 05:44:13;;;;;;;7.95;6.25;;;8.60;65.70;10.50;102319.00;;;;5032555;28;20200;-77
2024/01/13 05:46:40;;;;;;;7.30;5.95;;;8.60;65.80;10.50;102312.00;;;;5028752;28;20205;-77
2024/01/13 05:49:08;;;;;;;6.93;5.50;;;8.60;65.80;10.50;102298.00;;;;5029430;28;20286;-77
2024/01/13 05:51:36;;;;;;;6.40;5.50;;;8.60;65.80;10.50;102287.00;;;;5040569;28;20208;-77
2024/01/13 05:54:03;;;;;;;6.65;5.22;;;8.60;65.80;10.50;102278.00;;;;5026072;28;20701;-77
2024/01/13 05:56:31;;;;;;;7.55;5.35;;;8.60;65.80;10.50;102286.00;;;;5035518;28;21633;-77
2024/01/13 05:58:58;;;;;;;6.55;5.00;;;8.60;65.80;10.50;102284.00;;;;5031679;28;20211;-77
2024/01/13 06:01:25;;;;;;;5.93;4.88;;;8.60;65.80;10.50;102292.00;;;;5040949;28;20202;-77
2024/01/13 06:03:52;;;;;;;5.30;4.40;;;8.60;65.80;10.50;102311.00;;;;5028605;28;20192;-78
2024/01/13 06:06:20;;;;;;;6.10;4.53;;;8.60;65.90;10.50;102313.00;;;;5037357;28;20196;-77
2024/01/13 06:08:47;;;;;;;5.93;5.13;;;8.60;65.90;10.50;102310.00;;;;5031745;28;20231;-77
2024/01/13 06:11:15;;;;;;;6.07;4.70;;;8.60;65.80;10.50;102291.00;;;;5031939;28;20215;-77
2024/01/13 06:13:42;;;;;;;6.18;4.22;;;8.60;65.90;10.50;102287.00;;;;5019685;28;20223;-77
2024/01/13 06:16:10;;;;;;;5.22;3.97;;;8.60;65.90;10.50;102282.00;;;;5037931;28;20210;-77
2024/01/13 06:18:37;;;;;;;5.25;4.07;;;8.60;65.90;10.50;102303.00;;;;5035150;28;20670;-77
2024/01/13 06:21:05;;;;;;;5.03;3.92;;;8.60;65.90;10.50;102302.00;;;;5030488;28;20283;-77
2024/01/13 06:23:33;;;;;;;5.28;3.78;;;8.60;65.90;10.50;102285.00;;;;5029898;28;20204;-77
2024/01/13 06:26:00;;;;;;;6.10;4.75;;;8.60;66.00;10.50;102278.00;;;;5021250;28;20192;-77
2024/01/13 06:28:26;;;;;;;5.55;4.47;;;8.60;66.40;10.50;102259.00;;;;5028923;28;20206;-77
2024/01/13 06:30:53;;;;;;;6.00;3.97;;;8.60;66.00;10.50;102246.00;;;;5046465;28;20214;-77
2024/01/13 06:33:22;;;;;;;6.07;4.63;;;8.60;66.10;10.50;102234.00;;;;5026788;28;20196;-77
2024/01/13 06:35:50;;;;;;;6.28;4.35;;;8.70;66.10;10.50;102226.00;;;;5027070;28;20705;-77
2024/01/13 06:38:21;;;;;;;6.78;4.35;;;8.70;66.10;10.50;102224.00;;;;5031447;28;20258;-77
2024/01/13 06:40:53;;;;;;;7.05;4.57;;;8.70;66.10;10.50;102209.00;;;;5030925;28;20196;-77
2024/01/13 06:43:20;;;;;;;7.00;4.43;;;8.70;66.10;10.50;102206.00;;;;5038117;28;20679;-77
2024/01/13 06:45:51;;;;;;;6.68;4.78;;;8.70;66.00;10.50;102215.00;;;;5039623;28;20206;-77
2024/01/13 06:48:18;;;;;;;6.28;4.38;;;8.70;66.00;10.50;102218.00;;;;5033672;28;20216;-77
2024/01/13 06:50:47;;;;;;;5.95;4.35;;;8.70;66.00;10.50;102211.00;;;;5025246;28;20208;-77
2024/01/13 06:53:15;;;;;;;6.85;4.38;;;8.70;66.00;10.50;102200.00;;;;5040544;28;20203;-77
2024/01/13 06:55:43;;;;;;;6.03;4.28;;;8.70;66.00;10.50;102203.00;;;;5054237;28;20199;-77
2024/01/13 06:58:11;;;;;;;6.60;3.75;;;8.70;66.00;10.50;102201.00;;;;5055326;28;20286;-78
2024/01/13 07:00:39;;;;;;;6.35;4.05;;;8.70;66.00;10.50;102204.00;;;;5049449;28;20196;-77
2024/01/13 07:03:06;;;;;;;5.60;4.10;;;8.70;66.00;10.50;102202.00;;;;5033320;28;20588;-77
2024/01/13 07:05:33;;;;;;;7.13;4.40;;;8.70;65.90;10.50;102195.00;;;;5042276;28;20199;-77
2024/01/13 07:08:00;;;;;;;6.05;4.20;;;8.70;65.90;10.50;102203.00;;;;5054806;28;20199;-77
2024/01/13 07:10:28;;;;;;;6.15;4.07;;;8.70;66.60;10.50;102199.00;;;;5054681;28;20281;-77
2024/01/13 07:12:55;;;;;;;7.50;4.68;;;8.70;65.90;10.50;102199.00;;;;5053168;28;20257;-77
2024/01/13 07:15:23;;;;;;;7.78;4.50;;;8.70;66.00;10.50;102212.00;;;;5053174;28;20191;-78
2024/01/13 07:17:52;;;;;;;6.07;4.40;;;8.60;66.00;10.50;102184.00;;;;5026889;28;20666;-77
2024/01/13 07:20:21;;;;;;;6.43;4.50;;;8.60;66.00;10.50;102178.00;;;;5033846;28;20673;-77
2024/01/13 07:22:50;;;;;;;5.47;4.38;;;8.70;66.10;10.50;102183.00;;;;5038330;28;20298;-77
2024/01/13 07:25:19;;;;;;;6.93;4.30;;;8.70;66.00;10.50;102168.00;;;;5054406;28;20192;-77
2024/01/13 07:27:46;;;;;;;8.13;4.85;;;8.70;66.00;10.50;102145.00;;;;5042521;28;20197;-77
2024/01/13 07:30:15;;;;;;;7.38;5.22;;;8.70;66.00;10.50;102140.00;;;;5014509;28;20311;-78
2024/01/13 07:32:45;;;;;;;6.38;4.65;;;8.70;66.00;10.50;102154.00;;;;5029997;28;20278;-77
2024/01/13 07:35:12;;;;;;;7.82;5.40;;;8.70;66.00;10.50;102151.00;;;;5037192;28;20223;-77
2024/01/13 07:37:39;;;;;;;8.07;5.30;;;8.60;65.90;10.50;102151.00;;;;5028263;28;20196;-77
2024/01/13 07:40:08;;;;;;;7.88;4.95;;;8.70;66.00;10.50;102150.00;;;;5034309;28;20200;-77
2024/01/13 07:42:39;;;;;;;6.93;4.93;;;8.70;66.00;10.40;102164.00;;;;5031419;28;20203;-77
2024/01/13 07:45:07;;;;;;;6.68;4.60;;;8.70;66.00;10.50;102179.00;;;;5033641;28;20196;-77
2024/01/13 07:47:34;;;;;;;10.15;5.18;;;8.60;66.00;10.40;102180.00;;;;5030411;28;20345;-77
2024/01/13 07:50:04;;;;;;;7.10;4.97;;;8.60;66.00;10.40;102176.00;;;;5032740;28;20227;-77
2024/01/13 07:52:31;;;;;;;6.63;4.60;;;8.60;66.10;10.50;102160.00;;;;5030213;28;20199;-77
2024/01/13 07:55:01;;;;;;;6.50;4.53;;;8.60;66.10;10.50;102148.00;;;;5034123;28;20203;-77
2024/01/13 07:57:29;;;;;;;5.93;4.20;;;8.60;66.10;10.50;102163.00;;;;5033987;28;20208;-77
2024/01/13 07:59:57;;;;;;;5.50;4.18;;;8.60;66.10;10.50;102163.00;;;;5031629;28;20576;-77
2024/01/13 08:02:24;;;;;;;5.25;3.75;;;8.60;66.20;10.50;102152.00;;;;5032694;28;20204;-77
2024/01/13 08:04:52;;;;;;;4.85;3.53;;;8.60;66.10;10.50;102149.00;;;;5031600;28;20199;-77
2024/01/13 08:07:23;;;;;;;5.30;3.53;;;8.60;66.10;10.50;102151.00;;;;5031868;28;20579;-77
2024/01/13 08:09:50;;;;;;;5.57;3.75;;;8.70;66.30;10.50;102137.00;;;;5020820;28;20294;-77
2024/01/13 08:12:17;;;;;;;5.40;3.53;;;8.70;66.20;10.50;102148.00;;;;5034163;28;20291;-75
2024/01/13 08:14:45;;;;;;;5.13;3.40;;;8.70;66.20;10.50;102158.00;;;;5032901;28;20206;-75
2024/01/13 08:17:12;;;;;;;3.88;3.17;;;8.70;66.30;10.50;102150.00;;;;5028840;28;20218;-75
2024/01/13 08:19:39;;;;;;;6.60;3.55;;;8.70;66.30;10.50;102159.00;;;;5038593;28;20251;-75
2024/01/13 08:22:10;;;;;;;5.18;3.58;;;8.70;66.30;10.50;102165.00;;;;5033422;28;20259;-75
2024/01/13 08:24:39;;;;;;;5.03;3.28;;;8.70;66.30;10.50;102154.00;;;;5032674;28;20230;-75
2024/01/13 08:27:07;;;;;;;5.28;3.40;;;8.70;66.20;10.40;102149.00;;;;5045789;28;20668;-75
2024/01/13 08:29:34;;;;;;;3.97;3.13;;;8.70;66.20;10.40;102148.00;;;;5043960;28;20230;-75
2024/01/13 08:32:01;;;;;;;6.70;3.30;;;8.70;66.20;10.50;102158.00;;;;5038567;28;20204;-77
2024/01/13 08:34:30;;;;;;;4.00;3.33;;;8.70;66.20;10.50;102160.00;;;;5023632;28;20200;-76
2024/01/13 08:36:58;;;;;;;3.90;3.30;;;8.70;66.30;10.50;102145.00;;;;5018566;28;20282;-77
2024/01/13 08:39:26;;;;;;;5.00;3.40;;;8.70;66.30;10.50;102148.00;;;;5028415;28;20224;-76
2024/01/13 08:41:57;;;;;;;3.50;2.90;;;8.70;66.20;10.50;102151.00;;;;5034028;28;20199;-76
2024/01/13 08:44:24;;;;;;;4.63;3.30;;;8.70;66.20;10.50;102138.00;;;;5029890;28;20200;-77
2024/01/13 08:46:51;;;;;;;4.13;3.08;;;8.70;66.20;10.50;102144.00;;;;5041551;28;20223;-77
2024/01/13 08:49:18;;;;;;;5.32;3.70;;;8.70;66.20;10.50;102141.00;;;;5045176;28;20220;-77
2024/01/13 08:51:45;;;;;;;4.13;3.63;;;8.70;66.20;10.50;102149.00;;;;5031914;28;20220;-77
2024/01/13 08:54:12;;;;;;;3.40;2.85;;;8.70;66.10;10.50;102141.00;;;;5031629;28;20196;-77
2024/01/13 08:56:40;;;;;;;4.50;3.50;;;8.70;66.10;10.50;102151.00;;;;5030679;28;20580;-75
2024/01/13 08:59:09;;;;;;;4.78;3.15;;;8.70;66.00;10.40;102146.00;;;;5039567;28;20199;-75
2024/01/13 09:01:36;;;;;;;5.25;3.78;;;8.70;66.00;10.40;102148.00;;;;5032461;28;20196;-75
2024/01/13 09:04:04;;;;;;;4.05;3.65;;;8.70;65.90;10.40;102143.00;;;;5032738;28;20573;-75
2024/01/13 09:06:31;;;;;;;5.25;4.15;;;8.70;65.80;10.40;102145.00;;;;5042568;28;20281;-75
2024/01/13 09:08:58;;;;;;;5.20;3.72;;;8.70;65.90;10.40;102136.00;;;;5032783;28;20203;-76
2024/01/13 09:11:25;;;;;;;5.43;3.78;;;8.70;65.80;10.40;102138.00;;;;5034291;28;20199;-75
2024/01/13 09:13:52;;;;;;;4.65;3.13;;;8.70;65.80;10.30;102140.00;;;;5036004;28;20215;-75
2024/01/13 09:16:20;;;;;;;4.82;3.45;;;8.70;65.80;10.30;102134.00;;;;5024907;28;20364;-76
2024/01/13 09:18:47;;;;;;;4.07;3.05;;;8.70;65.80;10.30;102140.00;;;;5032742;28;20676;-75
2024/01/13 09:21:18;;;;;;;5.45;3.58;;;8.70;65.80;10.30;102133.00;;;;5035126;28;20205;-76
2024/01/13 09:23:45;;;;;;;4.25;3.45;;;8.70;65.80;10.30;102134.00;;;;5034599;28;20208;-76
2024/01/13 09:26:12;;;;;;;6.05;3.92;;;8.70;65.70;10.30;102127.00;;;;5031474;28;20196;-75
2024/01/13 09:28:39;;;;;;;4.68;3.53;;;8.70;65.80;10.30;102127.00;;;;5041243;28;20204;-76
2024/01/13 09:31:06;;;;;;;4.38;3.03;;;8.70;65.80;10.40;102119.00;;;;5038093;28;20253;-76
2024/01/13 09:33:34;;;;;;;3.78;2.90;;;8.70;65.80;10.40;102112.00;;;;5041945;28;20200;-76
2024/01/13 09:36:01;;;;;;;4.13;3.22;;;8.70;65.80;10.40;102120.00;;;;5036009;28;20224;-76
2024/01/13 09:38:29;;;;;;;4.65;3.00;;;8.70;65.80;10.40;102110.00;;;;5050861;28;20290;-76
2024/01/13 09:40:56;;;;;;;4.82;3.38;;;8.70;65.90;10.50;102112.00;;;;5048859;28;20552;-76
2024/01/13 09:43:31;;;;;;;5.25;3.78;;;8.70;65.90;10.50;102109.00;;;;5052371;28;20187;-76
2024/01/13 09:45:59;;;;;;;4.90;3.55;;;8.70;65.90;10.50;102102.00;;;;5023809;28;20279;-77
2024/01/13 09:48:26;;;;;;;5.38;4.00;;;8.80;65.90;10.50;102092.00;;;;5022541;28;20239;-76
2024/01/13 09:50:59;;;;;;;4.35;3.17;;;8.70;65.80;10.50;102096.00;;;;5042002;28;20310;-76
2024/01/13 09:53:29;;;;;;;5.60;3.63;;;8.80;65.90;10.50;102094.00;;;;5031249;28;20639;-76
2024/01/13 09:56:01;;;;;;;5.25;4.05;;;8.80;65.80;10.50;102090.00;;;;5037959;28;20206;-76
2024/01/13 09:58:29;;;;;;;4.65;3.85;;;8.80;65.90;10.60;102085.00;;;;5032229;28;20198;-76
2024/01/13 10:01:00;;;;;;;7.15;4.28;;;8.80;65.80;10.50;102091.00;;;;5029555;28;20204;-77
2024/01/13 10:03:27;;;;;;;5.22;4.18;;;8.80;65.70;10.60;102093.00;;;;5026627;28;20601;-77
2024/01/13 10:05:56;;;;;;;5.90;4.60;;;8.80;65.60;10.50;102100.00;;;;5036136;28;20708;-77
2024/01/13 10:08:32;;;;;;;6.40;4.75;;;8.80;65.60;10.50;102097.00;;;;5034883;28;20216;-76
2024/01/13 10:11:00;;;;;;;6.13;4.57;;;8.80;65.50;10.50;102094.00;;;;5037121;28;20226;-76
2024/01/13 10:13:28;;;;;;;6.72;5.18;;;8.80;65.40;10.50;102087.00;;;;5048400;28;20204;-76
2024/01/13 10:15:55;;;;;;;6.78;5.65;;;8.80;65.40;10.50;102093.00;;;;5041012;28;20218;-76
2024/01/13 10:18:25;;;;;;;6.78;5.30;;;8.80;65.40;10.50;102098.00;;;;5042224;28;20192;-76
2024/01/13 10:20:52;;;;;;;9.18;6.65;;;8.80;65.30;10.50;102095.00;;;;5030799;28;20196;-76
2024/01/13 10:23:20;;;;;;;9.35;6.38;;;8.80;65.30;10.50;102096.00;;;;5030017;28;20279;-76
2024/01/13 10:25:49;;;;;;;8.23;6.90;;;8.90;65.30;10.50;102085.00;;;;5031456;28;20592;-76
2024/01/13 10:28:16;;;;;;;8.88;6.85;;;8.80;65.10;10.60;102088.00;;;;5040818;28;20191;-75
2024/01/13 10:30:43;;;;;;;8.45;6.35;;;8.80;65.20;10.60;102081.00;;;;5035928;28;20219;-76
2024/01/13 10:33:12;;;;;;;8.85;6.75;;;8.90;65.20;10.60;102080.00;;;;5031923;28;20208;-75
2024/01/13 10:35:39;;;;;;;10.43;7.05;;;8.90;65.20;10.60;102073.00;;;;5024758;28;20221;-75
2024/01/13 10:38:07;;;;;;;11.98;8.35;;;8.90;65.20;10.60;102066.00;;;;5035468;28;20290;-75
2024/01/13 10:40:35;;;;;;;10.23;8.10;;;8.90;65.20;10.60;102066.00;;;;5040252;28;20203;-75
2024/01/13 10:43:07;;;;;;;11.90;8.68;;;8.90;65.20;10.60;102063.00;;;;5041666;28;20292;-76
2024/01/13 10:45:40;;;;;;;12.07;9.27;;;8.90;65.10;10.60;102060.00;;;;5038712;28;20261;-76
2024/01/13 10:48:22;;;;;;;11.57;8.68;;;8.90;65.00;10.50;102054.00;;;;5041372;28;20269;-76
2024/01/13 10:50:51;;;;;;;12.52;9.15;;;8.90;64.80;10.60;102055.00;;;;5038020;28;20216;-76
2024/01/13 10:53:26;;;;;;;13.30;9.52;;;8.90;64.70;10.50;102061.00;;;;5045430;28;20191;-76
2024/01/13 10:55:55;;;;;;;12.95;9.70;;;8.90;65.30;10.50;102061.00;;;;5047379;28;20278;-76